createdAt,value
2019-03-12T00:01:45.379Z,96202.72
2019-03-12T00:04:34.162Z,96142.56
2019-03-12T00:07:22.914Z,96209.39
2019-03-12T00:10:06.617Z,96125.56
2019-03-12T00:12:55.399Z,96185.64
2019-03-12T00:15:44.156Z,96188.65
2019-03-12T00:18:32.951Z,96150.97
2019-03-12T00:21:02.362Z,96194.19
2019-03-12T00:23:51.448Z,96198.34
2019-03-12T00:26:21.269Z,96207.31
2019-03-12T00:28:51.813Z,96221.89
2019-03-12T00:31:21.706Z,96239.33
2019-03-12T00:33:51.746Z,96243.19
2019-03-12T00:36:21.653Z,96243.98
2019-03-12T00:38:51.556Z,96243.98
2019-03-12T00:41:21.366Z,96235.64
2019-03-12T00:43:52.923Z,96233.89
2019-03-12T00:46:22.733Z,96238.77
2019-03-12T00:48:53.082Z,96243.28
2019-03-12T00:51:23.187Z,96229.47
2019-03-12T00:53:53.097Z,96245.69
2019-03-12T00:56:22.909Z,96245.19
2019-03-12T00:58:52.836Z,96234.88
2019-03-12T01:01:23.247Z,96243.91
2019-03-12T01:03:53.167Z,96257.43
2019-03-12T01:06:23.082Z,96257.87
2019-03-12T01:08:52.998Z,96261.20
2019-03-12T01:11:22.823Z,96265.62
2019-03-12T01:13:52.637Z,96265.22
2019-03-12T01:16:22.537Z,96274.09
2019-03-12T01:18:52.469Z,96267.92
2019-03-12T01:21:22.688Z,96275.48
2019-03-12T01:23:52.609Z,96259.51
2019-03-12T01:26:22.404Z,96285.20
2019-03-12T01:28:52.350Z,96280.13
2019-03-12T01:31:22.248Z,96295.33
2019-03-12T01:33:53.109Z,96298.39
2019-03-12T01:36:23.932Z,96279.66
2019-03-12T01:38:53.831Z,96294.09
2019-03-12T01:41:24.356Z,96307.67
2019-03-12T01:43:54.274Z,96297.25
2019-03-12T01:46:24.095Z,96302.77
2019-03-12T01:48:54.101Z,96300.13
2019-03-12T01:51:24.324Z,96289.43
2019-03-12T01:53:54.253Z,96290.09
2019-03-12T01:56:26.533Z,96295.63
2019-03-12T01:58:56.436Z,96302.41
2019-03-12T02:01:26.239Z,96296.59
2019-03-12T02:03:56.376Z,96291.31
2019-03-12T02:06:26.377Z,96301.84
2019-03-12T02:08:55.877Z,96306.52
2019-03-12T02:11:25.327Z,96298.96
2019-03-12T02:13:54.776Z,96307.77
2019-03-12T02:16:24.309Z,96299.99
2019-03-12T02:18:53.796Z,96309.17
2019-03-12T02:21:23.277Z,96302.50
2019-03-12T02:23:52.772Z,96312.86
2019-03-12T02:26:22.243Z,96306.20
2019-03-12T02:28:52.362Z,96310.28
2019-03-12T02:31:21.882Z,96315.20
2019-03-12T02:33:51.318Z,96330.45
2019-03-12T02:36:20.792Z,96325.06
2019-03-12T02:38:50.567Z,96323.67
2019-03-12T02:41:20.587Z,96327.11
2019-03-12T02:43:50.502Z,96332.79
2019-03-12T02:46:21.130Z,96337.81
2019-03-12T02:48:51.063Z,96348.75
2019-03-12T02:51:22.002Z,96354.31
2019-03-12T02:53:51.908Z,96351.94
2019-03-12T02:56:21.822Z,96357.10
2019-03-12T02:58:51.635Z,96367.03
2019-03-12T03:01:21.655Z,96363.56
2019-03-12T03:03:51.468Z,96363.07
2019-03-12T03:06:22.917Z,96371.73
2019-03-12T03:08:52.731Z,96379.38
2019-03-12T03:11:22.644Z,96383.61
2019-03-12T03:13:52.462Z,96384.19
2019-03-12T03:16:24.083Z,96396.69
2019-03-12T03:18:54.130Z,96400.98
2019-03-12T03:21:24.104Z,96399.66
2019-03-12T03:23:53.860Z,96403.37
2019-03-12T03:26:24.091Z,96405.52
2019-03-12T03:28:53.897Z,96410.58
2019-03-12T03:31:24.031Z,96414.48
2019-03-12T03:33:53.935Z,96411.30
2019-03-12T03:36:23.852Z,96407.23
2019-03-12T03:38:53.699Z,96415.33
2019-03-12T03:41:23.608Z,96415.39
2019-03-12T03:43:53.392Z,96417.89
2019-03-12T03:46:23.320Z,96410.30
2019-03-12T03:48:53.131Z,96420.47
2019-03-12T03:51:23.070Z,96408.52
2019-03-12T03:53:52.949Z,96418.61
2019-03-12T03:56:22.868Z,96405.66
2019-03-12T03:58:52.781Z,96413.11
2019-03-12T04:01:23.003Z,96420.56
2019-03-12T04:03:53.857Z,96424.63
2019-03-12T04:06:23.987Z,96423.63
2019-03-12T04:08:55.510Z,96424.95
2019-03-12T04:11:25.434Z,96429.55
2019-03-12T04:13:55.254Z,96431.74
2019-03-12T04:16:25.261Z,96437.45
2019-03-12T04:18:55.189Z,96432.09
2019-03-12T04:21:25.092Z,96433.45
2019-03-12T04:23:54.905Z,96428.41
2019-03-12T04:26:25.963Z,96443.71
2019-03-12T04:28:55.964Z,96438.19
2019-03-12T04:31:26.592Z,96443.41
2019-03-12T04:34:03.985Z,96448.30
2019-03-12T04:36:33.923Z,96447.95
2019-03-12T04:39:05.248Z,96450.20
2019-03-12T04:41:35.165Z,96449.46
2019-03-12T04:44:04.980Z,96463.98
2019-03-12T04:46:34.919Z,96459.19
2019-03-12T04:49:04.813Z,96448.73
2019-03-12T04:51:34.624Z,96460.12
2019-03-12T04:54:04.542Z,96462.47
2019-03-12T04:56:34.352Z,96461.30
2019-03-12T04:59:04.370Z,96471.88
2019-03-12T05:01:34.400Z,96457.48
2019-03-12T05:04:04.406Z,96463.23
2019-03-12T05:06:34.524Z,96455.00
2019-03-12T05:09:08.335Z,96460.16
2019-03-12T05:11:38.657Z,96457.83
2019-03-12T05:14:29.471Z,96459.97
2019-03-12T05:17:06.546Z,96455.39
2019-03-12T05:19:35.997Z,96466.87
2019-03-12T05:22:05.499Z,96466.38
2019-03-12T05:24:34.910Z,96464.61
2019-03-12T05:27:04.465Z,96464.61
2019-03-12T05:29:33.916Z,96468.28
2019-03-12T05:32:03.398Z,96463.78
2019-03-12T05:34:32.857Z,96475.37
2019-03-12T05:37:02.321Z,96465.74
2019-03-12T05:39:31.794Z,96479.61
2019-03-12T05:42:02.963Z,96480.79
2019-03-12T05:44:32.444Z,96478.01
2019-03-12T05:47:01.984Z,96480.79
2019-03-12T05:49:31.455Z,96486.80
2019-03-12T05:52:00.930Z,96490.66
2019-03-12T05:54:30.393Z,96485.13
2019-03-12T05:56:59.886Z,96487.72
2019-03-12T05:59:29.361Z,96494.66
2019-03-12T06:01:58.877Z,96495.48
2019-03-12T06:04:28.399Z,96491.15
2019-03-12T06:06:57.889Z,96495.77
2019-03-12T06:09:30.524Z,96497.79
2019-03-12T06:11:58.634Z,96497.30
2019-03-12T06:14:28.088Z,96493.83
2019-03-12T06:16:57.558Z,96496.36
2019-03-12T06:19:27.017Z,96496.36
2019-03-12T06:21:56.567Z,96488.66
2019-03-12T06:24:26.030Z,96485.81
2019-03-12T06:26:55.520Z,96493.89
2019-03-12T06:29:25.138Z,96495.09
2019-03-12T06:31:59.209Z,96499.98
2019-03-12T06:34:30.317Z,96493.14
2019-03-12T06:37:04.399Z,96492.41
2019-03-12T06:39:35.490Z,96504.53
2019-03-12T06:42:22.878Z,96487.17
2019-03-12T06:44:56.491Z,96493.58
2019-03-12T06:47:39.737Z,96482.08
2019-03-12T06:50:13.441Z,96488.70
2019-03-12T06:52:44.667Z,96489.51
2019-03-12T06:55:18.162Z,96486.47
2019-03-12T06:58:12.188Z,96488.75
2019-03-12T07:00:43.346Z,96485.00
2019-03-12T07:03:14.426Z,96495.19
2019-03-12T07:06:01.409Z,96482.09
2019-03-12T07:08:48.616Z,96474.98
2019-03-12T07:11:38.295Z,96480.84
2019-03-12T07:14:27.705Z,96473.03
2019-03-12T07:17:03.800Z,96480.08
2019-03-12T07:19:39.225Z,96481.29
2019-03-12T07:22:22.397Z,96483.62
2019-03-12T07:24:53.540Z,96477.20
2019-03-12T07:27:27.650Z,96485.88
2019-03-12T07:30:01.904Z,96484.69
2019-03-12T07:32:33.146Z,96491.75
2019-03-12T07:35:06.783Z,96496.27
2019-03-12T07:37:49.536Z,96497.36
2019-03-12T07:40:23.064Z,96498.64
2019-03-12T07:43:09.412Z,96495.80
2019-03-12T07:48:37.453Z,96480.77
2019-03-12T07:51:09.977Z,96482.55
2019-03-12T07:53:58.836Z,96473.01
2019-03-12T07:56:20.219Z,96465.84
2019-03-12T07:59:09.034Z,96469.20
2019-03-12T08:01:42.901Z,96466.11
2019-03-12T08:04:14.114Z,96473.81
2019-03-12T08:06:59.971Z,96472.55
2019-03-12T08:09:40.959Z,96460.36
2019-03-12T08:12:12.129Z,96456.37
2019-03-12T08:14:48.954Z,96454.07
2019-03-12T08:17:25.598Z,96445.69
2019-03-12T08:19:54.820Z,96455.57
2019-03-12T08:22:37.910Z,96453.20
2019-03-12T08:25:19.284Z,96442.81
2019-03-12T08:27:56.323Z,96431.84
2019-03-12T08:30:28.196Z,96437.81
2019-03-12T08:33:15.895Z,96426.53
2019-03-12T08:35:50.216Z,96425.98
2019-03-12T08:38:27.390Z,96410.63
2019-03-12T08:41:10.781Z,96408.05
2019-03-12T08:43:40.017Z,96415.63
2019-03-12T08:46:22.333Z,96409.83
2019-03-12T08:48:52.801Z,96405.00
2019-03-12T08:51:24.715Z,96400.38
2019-03-12T08:54:11.889Z,96419.41
2019-03-12T08:56:55.027Z,96408.92
2019-03-12T08:59:34.890Z,96410.66
2019-03-12T09:02:11.840Z,96399.11
2019-03-12T09:04:41.091Z,96403.86
2019-03-12T09:07:12.946Z,96391.88
2019-03-12T09:10:02.322Z,96393.83
2019-03-12T09:12:45.351Z,96382.30
2019-03-12T09:15:19.202Z,96386.09
2019-03-12T09:17:48.470Z,96380.55
2019-03-12T09:20:22.904Z,96378.63
2019-03-12T09:23:12.103Z,96377.27
2019-03-12T09:25:51.741Z,96363.92
2019-03-12T09:28:22.943Z,96380.54
2019-03-12T09:31:10.246Z,96372.81
2019-03-12T09:33:47.143Z,96355.61
2019-03-12T09:36:27.040Z,96359.85
2019-03-12T09:39:02.141Z,96361.92
2019-03-12T09:41:42.267Z,96358.89
2019-03-12T09:44:28.548Z,96352.88
2019-03-12T09:46:59.820Z,96350.37
2019-03-12T09:49:30.934Z,96341.98
2019-03-12T09:52:02.169Z,96337.08
2019-03-12T09:54:33.373Z,96334.23
2019-03-12T09:57:08.536Z,96333.97
2019-03-12T09:59:43.250Z,96316.22
2019-03-12T10:02:33.315Z,96316.86
2019-03-12T10:05:20.523Z,96316.45
2019-03-12T10:08:08.182Z,96324.25
2019-03-12T10:10:39.432Z,96312.69
2019-03-12T10:13:14.660Z,96307.80
2019-03-12T10:15:57.470Z,96330.41
2019-03-12T10:18:40.689Z,96306.25
2019-03-12T10:21:20.659Z,96303.61
2019-03-12T10:23:54.536Z,96296.63
2019-03-12T10:26:37.591Z,96297.81
2019-03-12T10:29:17.587Z,96284.34
2019-03-12T10:31:52.614Z,96266.78
2019-03-12T10:34:30.303Z,96277.12
2019-03-12T10:37:16.650Z,96279.41
2019-03-12T10:39:57.534Z,96267.47
2019-03-12T10:42:41.019Z,96263.84
2019-03-12T10:45:18.060Z,96263.80
2019-03-12T10:47:49.185Z,96260.69
2019-03-12T10:50:18.808Z,96258.70
2019-03-12T10:52:48.360Z,96252.41
2019-03-12T10:55:17.830Z,96253.94
2019-03-12T10:57:47.323Z,96254.30
2019-03-12T11:00:19.574Z,96242.33
2019-03-12T11:02:49.156Z,96248.41
2019-03-12T11:05:20.166Z,96236.06
2019-03-12T11:07:49.676Z,96228.08
2019-03-12T11:10:20.774Z,96221.94
2019-03-12T11:12:50.208Z,96226.50
2019-03-12T11:15:19.751Z,96199.62
2019-03-12T11:17:50.328Z,96201.80
2019-03-12T11:20:27.703Z,96198.85
2019-03-12T11:22:57.222Z,96199.38
2019-03-12T11:25:28.206Z,96190.86
2019-03-12T11:27:57.989Z,96183.95
2019-03-12T11:30:27.504Z,96177.25
2019-03-12T11:32:57.102Z,96176.52
2019-03-12T11:35:26.587Z,96168.30
2019-03-12T11:37:56.104Z,96162.27
2019-03-12T11:40:31.874Z,96154.23
2019-03-12T11:42:58.587Z,96148.92
2019-03-12T11:45:36.273Z,96143.19
2019-03-12T11:47:59.541Z,96132.00
2019-03-12T11:50:29.096Z,96130.77
2019-03-12T11:53:00.070Z,96122.53
2019-03-12T11:55:29.868Z,96103.15
2019-03-12T11:57:59.377Z,96095.38
2019-03-12T12:00:42.457Z,96097.44
2019-03-12T12:03:12.038Z,96096.56
2019-03-12T12:05:41.590Z,96077.77
2019-03-12T12:08:11.081Z,96071.20
2019-03-12T12:10:40.576Z,96070.89
2019-03-12T12:13:10.154Z,96071.64
2019-03-12T12:15:39.676Z,96054.48
2019-03-12T12:18:09.250Z,96055.63
2019-03-12T12:20:38.740Z,96058.07
2019-03-12T12:23:08.281Z,96056.23
2019-03-12T12:25:37.828Z,96040.26
2019-03-12T12:28:07.315Z,96034.94
2019-03-12T12:30:36.824Z,96030.68
2019-03-12T12:33:06.346Z,96033.19
2019-03-12T12:35:35.834Z,96015.19
2019-03-12T12:38:05.319Z,96018.37
2019-03-12T12:40:34.938Z,96005.87
2019-03-12T12:43:04.422Z,96002.30
2019-03-12T12:45:38.506Z,95994.86
2019-03-12T12:48:08.003Z,95984.31
2019-03-12T12:50:37.538Z,95978.09
2019-03-12T12:53:07.086Z,95967.54
2019-03-12T12:55:36.594Z,95962.34
2019-03-12T12:58:06.121Z,95964.72
2019-03-12T13:00:38.051Z,95973.97
2019-03-12T13:03:06.833Z,95960.20
2019-03-12T13:05:36.404Z,95951.89
2019-03-12T13:08:05.884Z,95943.52
2019-03-12T13:10:36.034Z,95936.73
2019-03-12T13:13:05.552Z,95939.21
2019-03-12T13:15:35.136Z,95936.28
2019-03-12T13:18:04.640Z,95931.98
2019-03-12T13:20:34.129Z,95912.54
2019-03-12T13:23:03.640Z,95911.42
2019-03-12T13:25:33.252Z,95908.55
2019-03-12T13:28:02.716Z,95905.72
2019-03-12T13:30:32.221Z,95906.88
2019-03-12T13:33:01.720Z,95907.48
2019-03-12T13:35:31.270Z,95901.69
2019-03-12T13:38:02.726Z,95884.69
2019-03-12T13:40:32.779Z,95877.56
2019-03-12T13:43:02.387Z,95869.34
2019-03-12T13:45:33.053Z,95864.57
2019-03-12T13:48:04.315Z,95862.55
2019-03-12T13:50:33.862Z,95854.05
2019-03-12T13:53:03.459Z,95850.13
2019-03-12T13:55:33.337Z,95839.36
2019-03-12T13:58:02.946Z,95835.97
2019-03-12T14:00:33.500Z,95827.42
2019-03-12T14:03:03.300Z,95818.95
2019-03-12T14:05:32.800Z,95811.14
2019-03-12T14:08:02.296Z,95819.66
2019-03-12T14:10:31.799Z,95817.34
2019-03-12T14:13:01.379Z,95806.97
2019-03-12T14:15:35.727Z,95800.41
2019-03-12T14:18:05.334Z,95791.94
2019-03-12T14:20:56.555Z,95783.95
2019-03-12T14:23:39.209Z,95778.98
2019-03-12T14:26:09.660Z,95774.43
2019-03-12T14:28:39.094Z,95778.70
2019-03-12T14:31:09.418Z,95765.73
2019-03-12T14:33:38.970Z,95766.81
2019-03-12T14:36:08.492Z,95763.61
2019-03-12T14:38:37.937Z,95765.43
2019-03-12T14:41:07.426Z,95754.77
2019-03-12T14:43:36.954Z,95750.63
2019-03-12T14:46:06.663Z,95747.29
2019-03-12T14:48:50.880Z,95752.67
2019-03-12T14:51:33.572Z,95745.45
2019-03-12T14:54:10.603Z,95736.52
2019-03-12T14:56:41.198Z,95735.03
2019-03-12T14:59:11.070Z,95729.09
2019-03-12T15:01:40.707Z,95718.45
2019-03-12T15:04:10.212Z,95709.80
2019-03-12T15:06:39.696Z,95692.25
2019-03-12T15:09:12.252Z,95692.61
2019-03-12T15:11:41.850Z,95676.91
2019-03-12T15:14:11.315Z,95676.00
2019-03-12T15:16:40.854Z,95668.73
2019-03-12T15:19:10.349Z,95666.42
2019-03-12T15:21:39.854Z,95663.59
2019-03-12T15:24:09.369Z,95651.27
2019-03-12T15:26:38.859Z,95657.98
2019-03-12T15:29:08.382Z,95642.47
2019-03-12T15:31:37.891Z,95646.63
2019-03-12T15:34:07.358Z,95634.84
2019-03-12T15:36:36.834Z,95626.94
2019-03-12T15:39:08.089Z,95626.52
2019-03-12T15:41:37.713Z,95616.05
2019-03-12T15:44:07.192Z,95618.20
2019-03-12T15:46:36.712Z,95621.56
2019-03-12T15:49:06.329Z,95616.36
2019-03-12T15:51:35.844Z,95605.95
2019-03-12T15:54:05.482Z,95589.38
2019-03-12T15:56:34.958Z,95580.73
2019-03-12T15:59:04.566Z,95573.14
2019-03-12T16:01:34.187Z,95573.82
2019-03-12T16:04:03.679Z,95567.25
2019-03-12T16:06:33.181Z,95561.26
2019-03-12T16:09:03.510Z,95562.26
2019-03-12T16:11:32.996Z,95545.85
2019-03-12T16:14:02.534Z,95547.41
2019-03-12T16:16:31.997Z,95539.33
2019-03-12T16:19:01.584Z,95528.58
2019-03-12T16:21:31.176Z,95531.02
2019-03-12T16:24:00.658Z,95525.13
2019-03-12T16:26:30.123Z,95519.98
2019-03-12T16:28:59.573Z,95516.97
2019-03-12T16:31:29.086Z,95515.64
2019-03-12T16:33:58.554Z,95508.37
2019-03-12T16:36:28.012Z,95502.95
2019-03-12T16:38:57.488Z,95500.92
2019-03-12T16:41:26.992Z,95498.44
2019-03-12T16:43:56.498Z,95488.77
2019-03-12T16:46:25.930Z,95488.85
2019-03-12T16:48:55.407Z,95484.00
2019-03-12T16:51:31.476Z,95475.74
2019-03-12T16:54:00.964Z,95470.11
2019-03-12T16:56:30.429Z,95464.56
2019-03-12T16:58:59.908Z,95457.50
2019-03-12T17:01:29.454Z,95456.98
2019-03-12T17:03:58.961Z,95450.61
2019-03-12T17:06:28.475Z,95442.06
2019-03-12T17:08:57.959Z,95433.21
2019-03-12T17:11:27.393Z,95429.77
2019-03-12T17:13:56.889Z,95423.33
2019-03-12T17:16:27.331Z,95417.80
2019-03-12T17:18:56.824Z,95413.99
2019-03-12T17:21:26.764Z,95411.45
2019-03-12T17:23:56.223Z,95406.47
2019-03-12T17:26:25.673Z,95398.57
2019-03-12T17:28:55.160Z,95390.91
2019-03-12T17:31:24.626Z,95391.81
2019-03-12T17:33:55.107Z,95389.28
2019-03-12T17:36:24.550Z,95391.58
2019-03-12T17:38:54.038Z,95395.95
2019-03-12T17:41:23.983Z,95390.25
2019-03-12T17:43:53.464Z,95387.89
2019-03-12T17:46:23.716Z,95388.85
2019-03-12T17:48:53.279Z,95375.76
2019-03-12T17:51:22.748Z,95374.30
2019-03-12T17:53:52.209Z,95371.23
2019-03-12T17:56:21.693Z,95365.44
2019-03-12T17:58:51.180Z,95367.50
2019-03-12T18:01:20.641Z,95351.21
2019-03-12T18:03:50.441Z,95357.78
2019-03-12T18:06:19.887Z,95352.77
2019-03-12T18:08:49.403Z,95348.77
2019-03-12T18:11:18.955Z,95347.52
2019-03-12T18:13:48.706Z,95340.00
2019-03-12T18:16:18.166Z,95335.38
2019-03-12T18:18:47.629Z,95326.80
2019-03-12T18:21:17.088Z,95326.86
2019-03-12T18:23:46.634Z,95327.57
2019-03-12T18:26:16.160Z,95327.67
2019-03-12T18:28:45.654Z,95327.20
2019-03-12T18:31:15.113Z,95317.85
2019-03-12T18:33:44.592Z,95310.64
2019-03-12T18:36:14.047Z,95299.40
2019-03-12T18:38:43.522Z,95298.32
2019-03-12T18:41:13.668Z,95288.47
2019-03-12T18:43:43.328Z,95285.24
2019-03-12T18:46:12.850Z,95285.95
2019-03-12T18:48:44.662Z,95280.93
2019-03-12T18:51:13.706Z,95276.70
2019-03-12T18:53:43.222Z,95271.48
2019-03-12T18:56:12.692Z,95263.73
2019-03-12T18:58:42.209Z,95256.52
2019-03-12T19:01:12.700Z,95253.43
2019-03-12T19:03:42.211Z,95243.78
2019-03-12T19:06:11.723Z,95245.33
2019-03-12T19:08:47.564Z,95232.23
2019-03-12T19:11:12.461Z,95228.09
2019-03-12T19:13:42.050Z,95225.44
2019-03-12T19:16:11.780Z,95222.58
2019-03-12T19:18:41.335Z,95215.83
2019-03-12T19:21:10.868Z,95212.13
2019-03-12T19:23:40.333Z,95217.52
2019-03-12T19:26:09.919Z,95204.14
2019-03-12T19:28:39.406Z,95195.40
2019-03-12T19:31:22.735Z,95192.22
2019-03-12T19:33:53.951Z,95181.89
2019-03-12T19:36:23.411Z,95172.81
2019-03-12T19:38:57.034Z,95172.41
2019-03-12T19:41:26.549Z,95164.78
2019-03-12T19:43:56.054Z,95158.81
2019-03-12T19:46:25.620Z,95152.47
2019-03-12T19:48:55.077Z,95152.45
2019-03-12T19:51:24.538Z,95152.02
2019-03-12T19:53:54.006Z,95142.18
2019-03-12T19:56:23.555Z,95140.28
2019-03-12T19:58:53.108Z,95134.66
2019-03-12T20:01:23.244Z,95130.42
2019-03-12T20:03:52.672Z,95125.73
2019-03-12T20:06:22.308Z,95119.14
2019-03-12T20:08:51.875Z,95116.75
2019-03-12T20:11:40.893Z,95115.47
2019-03-12T20:14:23.903Z,95109.34
2019-03-12T20:17:22.296Z,95110.77
2019-03-12T20:20:14.523Z,95103.45
2019-03-12T20:23:14.438Z,95096.01
2019-03-12T20:26:26.390Z,95090.65
2019-03-12T20:29:41.828Z,95082.48
2019-03-12T20:32:48.828Z,95062.39
2019-03-12T20:36:14.275Z,95061.00
2019-03-12T20:39:31.054Z,95062.47
2019-03-12T20:42:40.058Z,95050.03
2019-03-12T20:45:43.566Z,95054.56
2019-03-12T20:48:35.223Z,95044.56
2019-03-12T20:51:59.412Z,95049.14
2019-03-12T20:55:10.012Z,95035.78
2019-03-12T20:58:29.489Z,95028.65
2019-03-12T21:01:39.105Z,95017.20
2019-03-12T21:04:35.694Z,95006.55
2019-03-12T21:07:35.581Z,95001.71
2019-03-12T21:10:49.343Z,95001.66
2019-03-12T21:13:52.245Z,94998.70
2019-03-12T21:16:38.244Z,94992.42
2019-03-12T21:19:31.502Z,94996.56
2019-03-12T21:22:08.899Z,94988.13
2019-03-12T21:24:58.253Z,94989.37
2019-03-12T21:27:47.423Z,94983.39
2019-03-12T21:30:15.315Z,94975.84
2019-03-12T21:32:44.834Z,94964.71
2019-03-12T21:35:14.284Z,94958.75
2019-03-12T21:37:43.903Z,94946.61
2019-03-12T21:40:13.491Z,94950.03
2019-03-12T21:42:42.950Z,94940.95
2019-03-12T21:45:14.518Z,94943.52
2019-03-12T21:47:44.533Z,94932.19
2019-03-12T21:50:14.448Z,94928.52
2019-03-12T21:52:44.467Z,94918.16
2019-03-12T21:55:15.577Z,94908.25
2019-03-12T21:57:45.129Z,94907.55
2019-03-12T22:00:20.560Z,94903.52
2019-03-12T22:02:50.063Z,94900.95
2019-03-12T22:05:19.563Z,94899.53
2019-03-12T22:07:49.118Z,94892.02
2019-03-12T22:10:18.657Z,94895.13
2019-03-12T22:12:48.161Z,94892.64
2019-03-12T22:15:18.095Z,94897.58
2019-03-12T22:17:48.006Z,94895.23
2019-03-12T22:20:17.820Z,94882.52
2019-03-12T22:25:42.953Z,94864.55
2019-03-12T22:28:31.773Z,94856.41
2019-03-12T22:31:13.499Z,94826.20
2019-03-12T22:34:02.266Z,94836.69
2019-03-12T22:36:51.046Z,94788.56
2019-03-12T22:39:39.824Z,94833.43
2019-03-12T22:42:29.056Z,94827.24
2019-03-12T22:44:58.973Z,94820.09
2019-03-12T22:47:29.090Z,94815.38
2019-03-12T22:49:59.212Z,94806.34
2019-03-12T22:52:29.218Z,94812.94
2019-03-12T22:54:59.144Z,94805.97
2019-03-12T22:57:29.587Z,94806.38
2019-03-12T22:59:59.675Z,94803.50
2019-03-12T23:02:29.811Z,94788.92
2019-03-12T23:04:59.714Z,94786.53
2019-03-12T23:07:30.061Z,94775.13
2019-03-12T23:09:59.593Z,94773.80
2019-03-12T23:12:29.078Z,94782.09
2019-03-12T23:14:58.616Z,94777.02
2019-03-12T23:17:28.105Z,94778.14
2019-03-12T23:19:57.557Z,94766.20
2019-03-12T23:22:27.035Z,94767.84
2019-03-12T23:24:56.597Z,94763.60
2019-03-12T23:27:26.275Z,94757.45
2019-03-12T23:29:55.735Z,94752.48
2019-03-12T23:32:25.312Z,94747.20
2019-03-12T23:34:54.897Z,94746.98
2019-03-12T23:37:24.389Z,94749.08
2019-03-12T23:39:54.333Z,94746.37
2019-03-12T23:42:24.262Z,94740.25
2019-03-12T23:44:54.281Z,94743.20
2019-03-12T23:47:24.707Z,94742.99
2019-03-12T23:49:54.170Z,94745.91
2019-03-12T23:52:23.849Z,94751.28
2019-03-12T23:54:53.399Z,94733.02
2019-03-12T23:57:23.236Z,94739.12
2019-03-12T23:59:52.723Z,94741.57
